sensor_id;sensor_type;location;lat;lon;timestamp;pressure;altitude;pressure_sealevel;temperature;humidity
18765;BME280;9511;54.242;12.448;2023-02-05T04:05:27;103736.66;;;-3.86;95.61
18765;BME280;9511;54.242;12.448;2023-02-05T04:07:56;103716.91;;;-3.85;95.49
18765;BME280;9511;54.242;12.448;2023-02-05T04:10:31;103717.00;;;-3.78;95.25
18765;BME280;9511;54.242;12.448;2023-02-05T04:13:02;103702.59;;;-3.76;95.23
18765;BME280;9511;54.242;12.448;2023-02-05T04:15:31;103705.19;;;-3.76;95.54
18765;BME280;9511;54.242;12.448;2023-02-05T04:18:01;103701.78;;;-3.82;96.01
18765;BME280;9511;54.242;12.448;2023-02-05T04:20:31;103702.53;;;-3.83;95.79
18765;BME280;9511;54.242;12.448;2023-02-05T04:23:02;103700.47;;;-3.86;95.77
18765;BME280;9511;54.242;12.448;2023-02-05T04:25:31;103707.28;;;-3.86;95.62
18765;BME280;9511;54.242;12.448;2023-02-05T04:28:00;103705.13;;;-3.83;95.55
18765;BME280;9511;54.242;12.448;2023-02-05T04:30:28;103711.22;;;-3.83;95.61
18765;BME280;9511;54.242;12.448;2023-02-05T04:32:56;103701.47;;;-3.78;95.88
18765;BME280;9511;54.242;12.448;2023-02-05T04:35:23;103699.13;;;-3.69;95.99
18765;BME280;9511;54.242;12.448;2023-02-05T04:37:52;103700.97;;;-3.68;95.83
18765;BME280;9511;54.242;12.448;2023-02-05T04:40:20;103705.63;;;-3.66;95.88
18765;BME280;9511;54.242;12.448;2023-02-05T04:42:47;103699.00;;;-3.64;95.80
18765;BME280;9511;54.242;12.448;2023-02-05T04:45:14;103703.25;;;-3.64;95.90
18765;BME280;9511;54.242;12.448;2023-02-05T04:47:41;103702.31;;;-3.65;95.84
18765;BME280;9511;54.242;12.448;2023-02-05T04:50:09;103697.50;;;-3.62;95.84
18765;BME280;9511;54.242;12.448;2023-02-05T04:52:36;103701.25;;;-3.60;95.53
18765;BME280;9511;54.242;12.448;2023-02-05T04:55:06;103697.38;;;-3.56;95.52
18765;BME280;9511;54.242;12.448;2023-02-05T04:57:33;103703.28;;;-3.57;95.32
18765;BME280;9511;54.242;12.448;2023-02-05T05:00:00;103704.22;;;-3.57;95.37
18765;BME280;9511;54.242;12.448;2023-02-05T05:02:28;103707.22;;;-3.54;95.61
18765;BME280;9511;54.242;12.448;2023-02-05T05:04:55;103704.22;;;-3.57;95.53
18765;BME280;9511;54.242;12.448;2023-02-05T05:07:22;103702.38;;;-3.58;95.49
18765;BME280;9511;54.242;12.448;2023-02-05T05:09:49;103699.78;;;-3.58;95.45
18765;BME280;9511;54.242;12.448;2023-02-05T05:12:18;103692.75;;;-3.59;95.59
18765;BME280;9511;54.242;12.448;2023-02-05T05:14:45;103682.78;;;-3.56;95.31
18765;BME280;9511;54.242;12.448;2023-02-05T05:17:13;103667.25;;;-3.56;95.48
18765;BME280;9511;54.242;12.448;2023-02-05T05:19:42;103670.94;;;-3.61;95.59
18765;BME280;9511;54.242;12.448;2023-02-05T05:22:10;103676.81;;;-3.62;95.58
18765;BME280;9511;54.242;12.448;2023-02-05T05:24:37;103677.22;;;-3.59;95.85
18765;BME280;9511;54.242;12.448;2023-02-05T05:27:05;103670.72;;;-3.62;95.44
18765;BME280;9511;54.242;12.448;2023-02-05T05:29:34;103663.88;;;-3.62;95.55
18765;BME280;9511;54.242;12.448;2023-02-05T05:32:01;103662.44;;;-3.60;95.70
18765;BME280;9511;54.242;12.448;2023-02-05T05:34:29;103666.34;;;-3.56;95.70
18765;BME280;9511;54.242;12.448;2023-02-05T05:36:56;103666.19;;;-3.51;94.88
18765;BME280;9511;54.242;12.448;2023-02-05T05:39:23;103664.00;;;-3.48;95.37
18765;BME280;9511;54.242;12.448;2023-02-05T05:42:09;103654.78;;;-3.45;94.70
18765;BME280;9511;54.242;12.448;2023-02-05T05:44:56;103652.19;;;-3.45;95.23
18765;BME280;9511;54.242;12.448;2023-02-05T05:47:23;103656.63;;;-3.44;94.88
18765;BME280;9511;54.242;12.448;2023-02-05T05:49:50;103653.69;;;-3.40;94.91
18765;BME280;9511;54.242;12.448;2023-02-05T05:52:18;103657.75;;;-3.42;94.38
18765;BME280;9511;54.242;12.448;2023-02-05T05:54:45;103655.91;;;-3.43;94.54
18765;BME280;9511;54.242;12.448;2023-02-05T05:57:12;103667.75;;;-3.38;94.78
18765;BME280;9511;54.242;12.448;2023-02-05T05:59:40;103670.56;;;-3.37;94.54
18765;BME280;9511;54.242;12.448;2023-02-05T06:02:08;103669.22;;;-3.40;94.21
18765;BME280;9511;54.242;12.448;2023-02-05T06:04:35;103666.03;;;-3.45;94.53
18765;BME280;9511;54.242;12.448;2023-02-05T06:07:03;103661.09;;;-3.43;94.19
18765;BME280;9511;54.242;12.448;2023-02-05T06:09:30;103656.47;;;-3.39;94.35
18765;BME280;9511;54.242;12.448;2023-02-05T06:11:57;103659.28;;;-3.37;93.69
18765;BME280;9511;54.242;12.448;2023-02-05T06:14:24;103655.97;;;-3.36;93.91
18765;BME280;9511;54.242;12.448;2023-02-05T06:16:52;103660.94;;;-3.38;94.12
18765;BME280;9511;54.242;12.448;2023-02-05T06:19:22;103653.38;;;-3.36;93.83
18765;BME280;9511;54.242;12.448;2023-02-05T06:21:49;103655.22;;;-3.35;94.20
18765;BME280;9511;54.242;12.448;2023-02-05T06:24:16;103652.50;;;-3.23;94.39
18765;BME280;9511;54.242;12.448;2023-02-05T06:26:44;103648.66;;;-3.19;94.20
18765;BME280;9511;54.242;12.448;2023-02-05T06:29:11;103649.28;;;-3.07;94.11
18765;BME280;9511;54.242;12.448;2023-02-05T06:31:38;103645.44;;;-3.04;93.53
18765;BME280;9511;54.242;12.448;2023-02-05T06:34:05;103645.22;;;-3.05;93.73
18765;BME280;9511;54.242;12.448;2023-02-05T06:36:34;103644.69;;;-3.03;93.35
18765;BME280;9511;54.242;12.448;2023-02-05T06:39:01;103651.00;;;-2.94;93.21
18765;BME280;9511;54.242;12.448;2023-02-05T06:41:29;103630.69;;;-2.90;93.30
18765;BME280;9511;54.242;12.448;2023-02-05T06:43:56;103633.28;;;-2.83;93.14
18765;BME280;9511;54.242;12.448;2023-02-05T06:46:23;103619.06;;;-2.80;92.93
18765;BME280;9511;54.242;12.448;2023-02-05T06:48:50;103617.75;;;-2.83;92.75
18765;BME280;9511;54.242;12.448;2023-02-05T06:51:18;103611.03;;;-2.96;92.69
18765;BME280;9511;54.242;12.448;2023-02-05T06:53:46;103605.53;;;-2.91;92.34
18765;BME280;9511;54.242;12.448;2023-02-05T06:56:13;103609.97;;;-2.90;92.15
18765;BME280;9511;54.242;12.448;2023-02-05T06:58:41;103611.41;;;-2.92;92.32
18765;BME280;9511;54.242;12.448;2023-02-05T07:01:08;103610.13;;;-2.96;92.11
18765;BME280;9511;54.242;12.448;2023-02-05T07:03:35;103614.91;;;-2.99;91.98
18765;BME280;9511;54.242;12.448;2023-02-05T07:06:03;103620.84;;;-2.93;92.48
18765;BME280;9511;54.242;12.448;2023-02-05T07:08:30;103627.34;;;-2.89;91.89
18765;BME280;9511;54.242;12.448;2023-02-05T07:11:00;103622.16;;;-2.89;91.82
18765;BME280;9511;54.242;12.448;2023-02-05T07:13:27;103628.50;;;-2.80;91.87
18765;BME280;9511;54.242;12.448;2023-02-05T07:15:55;103620.00;;;-2.79;91.53
18765;BME280;9511;54.242;12.448;2023-02-05T07:18:22;103620.91;;;-2.79;91.67
18765;BME280;9511;54.242;12.448;2023-02-05T07:20:50;103621.84;;;-2.78;91.66
18765;BME280;9511;54.242;12.448;2023-02-05T07:23:17;103631.47;;;-2.70;91.29
18765;BME280;9511;54.242;12.448;2023-02-05T07:25:44;103630.94;;;-2.68;90.75
18765;BME280;9511;54.242;12.448;2023-02-05T07:28:13;103627.03;;;-2.64;90.30
18765;BME280;9511;54.242;12.448;2023-02-05T07:30:40;103626.69;;;-2.67;90.50
18765;BME280;9511;54.242;12.448;2023-02-05T07:33:08;103622.59;;;-2.65;90.37
18765;BME280;9511;54.242;12.448;2023-02-05T07:35:36;103621.88;;;-2.64;90.11
18765;BME280;9511;54.242;12.448;2023-02-05T07:38:04;103617.84;;;-2.55;89.93
18765;BME280;9511;54.242;12.448;2023-02-05T07:40:32;103631.53;;;-2.56;89.82
18765;BME280;9511;54.242;12.448;2023-02-05T07:42:59;103629.88;;;-2.55;90.44
18765;BME280;9511;54.242;12.448;2023-02-05T07:45:27;103629.31;;;-2.53;89.63
18765;BME280;9511;54.242;12.448;2023-02-05T07:47:55;103636.38;;;-2.45;89.58
18765;BME280;9511;54.242;12.448;2023-02-05T07:50:22;103633.97;;;-2.43;89.38
18765;BME280;9511;54.242;12.448;2023-02-05T07:52:49;103632.69;;;-2.32;89.46
18765;BME280;9511;54.242;12.448;2023-02-05T07:55:16;103634.53;;;-2.31;89.08
18765;BME280;9511;54.242;12.448;2023-02-05T07:57:44;103629.91;;;-2.34;88.81
18765;BME280;9511;54.242;12.448;2023-02-05T08:00:13;103626.75;;;-2.31;88.47
18765;BME280;9511;54.242;12.448;2023-02-05T08:02:42;103626.22;;;-2.29;88.75
18765;BME280;9511;54.242;12.448;2023-02-05T08:05:09;103631.59;;;-2.27;88.29
18765;BME280;9511;54.242;12.448;2023-02-05T08:07:37;103630.84;;;-2.26;88.02
18765;BME280;9511;54.242;12.448;2023-02-05T08:10:05;103625.31;;;-2.22;87.54
18765;BME280;9511;54.242;12.448;2023-02-05T08:12:32;103624.00;;;-2.19;87.97
18765;BME280;9511;54.242;12.448;2023-02-05T08:15:00;103621.63;;;-2.17;87.55
18765;BME280;9511;54.242;12.448;2023-02-05T08:17:27;103624.94;;;-2.04;87.46
18765;BME280;9511;54.242;12.448;2023-02-05T08:19:55;103624.94;;;-2.04;87.19
18765;BME280;9511;54.242;12.448;2023-02-05T08:22:23;103629.38;;;-2.03;86.68
18765;BME280;9511;54.242;12.448;2023-02-05T08:24:50;103631.22;;;-2.02;86.19
18765;BME280;9511;54.242;12.448;2023-02-05T08:27:17;103629.56;;;-1.87;85.98
18765;BME280;9511;54.242;12.448;2023-02-05T08:29:46;103629.56;;;-1.87;86.00
18765;BME280;9511;54.242;12.448;2023-02-05T08:32:14;103625.31;;;-1.94;85.82
18765;BME280;9511;54.242;12.448;2023-02-05T08:34:41;103626.25;;;-1.93;85.96
18765;BME280;9511;54.242;12.448;2023-02-05T08:37:10;103613.44;;;-1.92;85.85
18765;BME280;9511;54.242;12.448;2023-02-05T08:39:37;103626.06;;;-1.80;85.41
18765;BME280;9511;54.242;12.448;2023-02-05T08:42:04;103621.22;;;-1.84;84.95
18765;BME280;9511;54.242;12.448;2023-02-05T08:44:32;103618.84;;;-1.83;84.70
18765;BME280;9511;54.242;12.448;2023-02-05T08:46:59;103614.94;;;-1.79;84.50
18765;BME280;9511;54.242;12.448;2023-02-05T08:49:26;103615.47;;;-1.75;84.29
18765;BME280;9511;54.242;12.448;2023-02-05T08:51:54;103624.56;;;-1.71;83.48
18765;BME280;9511;54.242;12.448;2023-02-05T08:54:22;103632.69;;;-1.61;83.32
18765;BME280;9511;54.242;12.448;2023-02-05T08:56:50;103631.78;;;-1.62;83.28
18765;BME280;9511;54.242;12.448;2023-02-05T08:59:18;103641.41;;;-1.53;82.97
18765;BME280;9511;54.242;12.448;2023-02-05T09:01:46;103642.88;;;-1.55;82.61
18765;BME280;9511;54.242;12.448;2023-02-05T09:04:15;103629.72;;;-1.50;82.73
18765;BME280;9511;54.242;12.448;2023-02-05T09:06:43;103626.38;;;-1.56;82.37
18765;BME280;9511;54.242;12.448;2023-02-05T09:09:11;103637.69;;;-1.55;82.33
18765;BME280;9511;54.242;12.448;2023-02-05T09:11:40;103629.91;;;-1.48;82.40
18765;BME280;9511;54.242;12.448;2023-02-05T09:14:08;103621.56;;;-1.46;81.19
18765;BME280;9511;54.242;12.448;2023-02-05T09:16:36;103615.41;;;-1.39;81.57
18765;BME280;9511;54.242;12.448;2023-02-05T09:19:03;103625.25;;;-1.44;81.42
18765;BME280;9511;54.242;12.448;2023-02-05T09:21:31;103619.50;;;-1.41;80.92
18765;BME280;9511;54.242;12.448;2023-02-05T09:23:58;103617.09;;;-1.40;80.30
18765;BME280;9511;54.242;12.448;2023-02-05T09:26:25;103612.44;;;-1.35;80.68
18765;BME280;9511;54.242;12.448;2023-02-05T09:28:54;103619.34;;;-1.43;79.92
18765;BME280;9511;54.242;12.448;2023-02-05T09:31:21;103613.38;;;-1.35;79.59
18765;BME280;9511;54.242;12.448;2023-02-05T09:33:48;103609.66;;;-1.29;80.10
18765;BME280;9511;54.242;12.448;2023-02-05T09:36:17;103606.31;;;-1.28;79.92
18765;BME280;9511;54.242;12.448;2023-02-05T09:38:46;103605.56;;;-1.27;80.12
18765;BME280;9511;54.242;12.448;2023-02-05T09:41:18;103598.91;;;-1.25;79.27
18765;BME280;9511;54.242;12.448;2023-02-05T09:43:55;103604.44;;;-1.22;79.88
18765;BME280;9511;54.242;12.448;2023-02-05T09:46:32;103616.47;;;-1.16;79.01
18765;BME280;9511;54.242;12.448;2023-02-05T09:49:06;103609.63;;;-1.22;78.93
18765;BME280;9511;54.242;12.448;2023-02-05T09:51:40;103599.63;;;-1.19;79.11
18765;BME280;9511;54.242;12.448;2023-02-05T09:54:13;103602.19;;;-1.12;78.39
18765;BME280;9511;54.242;12.448;2023-02-05T09:56:42;103610.88;;;-1.12;78.00
18765;BME280;9511;54.242;12.448;2023-02-05T09:59:15;103617.75;;;-1.12;77.80
18765;BME280;9511;54.242;12.448;2023-02-05T10:01:46;103612.16;;;-1.01;78.00
18765;BME280;9511;54.242;12.448;2023-02-05T10:04:14;103613.44;;;-0.97;77.81
18765;BME280;9511;54.242;12.448;2023-02-05T10:09:56;103611.19;;;-0.94;77.81
18765;BME280;9511;54.242;12.448;2023-02-05T10:12:36;103620.75;;;-0.72;78.02
18765;BME280;9511;54.242;12.448;2023-02-05T10:15:16;103613.38;;;-0.83;77.40
18765;BME280;9511;54.242;12.448;2023-02-05T10:17:55;103616.41;;;-0.64;76.79
18765;BME280;9511;54.242;12.448;2023-02-05T10:20:41;103610.50;;;-0.70;77.28
18765;BME280;9511;54.242;12.448;2023-02-05T10:23:14;103611.63;;;-0.68;77.05
18765;BME280;9511;54.242;12.448;2023-02-05T10:25:56;103601.53;;;-0.58;76.76
18765;BME280;9511;54.242;12.448;2023-02-05T10:31:42;103613.00;;;-0.49;76.29
18765;BME280;9511;54.242;12.448;2023-02-05T10:34:18;103614.31;;;-0.22;76.44
18765;BME280;9511;54.242;12.448;2023-02-05T10:36:49;103605.91;;;-0.43;75.80
18765;BME280;9511;54.242;12.448;2023-02-05T10:39:20;103613.66;;;-0.36;75.22
18765;BME280;9511;54.242;12.448;2023-02-05T10:41:52;103610.94;;;-0.44;74.95
18765;BME280;9511;54.242;12.448;2023-02-05T10:44:27;103615.22;;;-0.45;74.36
18765;BME280;9511;54.242;12.448;2023-02-05T10:47:03;103618.31;;;-0.40;74.64
18765;BME280;9511;54.242;12.448;2023-02-05T10:49:41;103616.72;;;-0.24;74.88
18765;BME280;9511;54.242;12.448;2023-02-05T10:52:13;103619.78;;;-0.12;74.84
18765;BME280;9511;54.242;12.448;2023-02-05T10:54:41;103615.81;;;-0.24;74.04
18765;BME280;9511;54.242;12.448;2023-02-05T10:57:13;103613.66;;;-0.36;73.66
18765;BME280;9511;54.242;12.448;2023-02-05T10:59:48;103609.69;;;-0.25;73.90
18765;BME280;9511;54.242;12.448;2023-02-05T11:02:20;103592.69;;;-0.14;74.06
18765;BME280;9511;54.242;12.448;2023-02-05T11:04:52;103597.91;;;-0.14;74.14
18765;BME280;9511;54.242;12.448;2023-02-05T11:07:24;103600.78;;;-0.04;73.87
18765;BME280;9511;54.242;12.448;2023-02-05T11:09:54;103604.53;;;-0.09;73.10
18765;BME280;9511;54.242;12.448;2023-02-05T11:12:26;103601.59;;;-0.12;73.12
18765;BME280;9511;54.242;12.448;2023-02-05T11:14:57;103605.84;;;-0.06;72.73
18765;BME280;9511;54.242;12.448;2023-02-05T11:17:30;103607.22;;;-0.16;72.12
18765;BME280;9511;54.242;12.448;2023-02-05T11:19:59;103604.94;;;0.10;73.17
18765;BME280;9511;54.242;12.448;2023-02-05T11:22:28;103596.44;;;0.04;72.89
18765;BME280;9511;54.242;12.448;2023-02-05T11:25:13;103584.34;;;0.04;72.46
18765;BME280;9511;54.242;12.448;2023-02-05T11:27:44;103586.66;;;0.17;72.45
18765;BME280;9511;54.242;12.448;2023-02-05T11:30:25;103589.44;;;0.18;72.41
18765;BME280;9511;54.242;12.448;2023-02-05T11:32:54;103589.44;;;0.18;71.51
18765;BME280;9511;54.242;12.448;2023-02-05T11:35:23;103598.53;;;-0.01;71.58
18765;BME280;9511;54.242;12.448;2023-02-05T11:37:58;103585.28;;;0.05;72.09
18765;BME280;9511;54.242;12.448;2023-02-05T11:40:27;103596.50;;;0.19;71.49
18765;BME280;9511;54.242;12.448;2023-02-05T11:42:59;103586.16;;;0.28;71.74
18765;BME280;9511;54.242;12.448;2023-02-05T11:45:28;103591.81;;;0.40;71.08
18765;BME280;9511;54.242;12.448;2023-02-05T11:47:59;103601.22;;;0.31;70.42
18765;BME280;9511;54.242;12.448;2023-02-05T11:50:28;103612.88;;;0.18;70.70
18765;BME280;9511;54.242;12.448;2023-02-05T11:53:06;103609.72;;;0.37;70.80
18765;BME280;9511;54.242;12.448;2023-02-05T11:55:35;103617.13;;;0.41;70.35
18765;BME280;9511;54.242;12.448;2023-02-05T11:58:04;103611.56;;;0.38;70.19
18765;BME280;9511;54.242;12.448;2023-02-05T12:00:32;103614.78;;;0.67;70.48
18765;BME280;9511;54.242;12.448;2023-02-05T12:03:05;103620.75;;;0.66;69.65
18765;BME280;9511;54.242;12.448;2023-02-05T12:05:43;103614.22;;;0.69;69.72
18765;BME280;9511;54.242;12.448;2023-02-05T12:08:27;103607.00;;;0.83;69.57
18765;BME280;9511;54.242;12.448;2023-02-05T12:11:05;103593.63;;;0.64;68.98
18765;BME280;9511;54.242;12.448;2023-02-05T12:13:47;103597.38;;;0.74;69.28
18765;BME280;9511;54.242;12.448;2023-02-05T12:16:32;103605.72;;;0.79;68.91
18765;BME280;9511;54.242;12.448;2023-02-05T12:19:15;103612.28;;;0.75;69.14
18765;BME280;9511;54.242;12.448;2023-02-05T12:21:48;103614.53;;;0.72;68.65
18765;BME280;9511;54.242;12.448;2023-02-05T12:24:55;103621.97;;;0.76;68.61
18765;BME280;9511;54.242;12.448;2023-02-05T12:27:35;103611.19;;;0.73;68.46
18765;BME280;9511;54.242;12.448;2023-02-05T12:30:24;103602.03;;;0.77;68.54
18765;BME280;9511;54.242;12.448;2023-02-05T12:33:03;103594.88;;;0.67;68.81
18765;BME280;9511;54.242;12.448;2023-02-05T12:35:50;103588.09;;;0.76;68.72
18765;BME280;9511;54.242;12.448;2023-02-05T12:38:26;103578.50;;;1.00;68.81
18765;BME280;9511;54.242;12.448;2023-02-05T12:41:07;103584.38;;;1.06;68.28
18765;BME280;9511;54.242;12.448;2023-02-05T12:43:38;103588.50;;;1.04;68.54
18765;BME280;9511;54.242;12.448;2023-02-05T12:46:22;103587.91;;;1.06;68.36
18765;BME280;9511;54.242;12.448;2023-02-05T12:49:14;103588.56;;;1.13;68.24
18765;BME280;9511;54.242;12.448;2023-02-05T12:51:56;103587.63;;;1.12;67.83
18765;BME280;9511;54.242;12.448;2023-02-05T12:54:36;103576.19;;;1.43;67.79
18765;BME280;9511;54.242;12.448;2023-02-05T12:57:07;103567.38;;;1.50;67.43
18765;BME280;9511;54.242;12.448;2023-02-05T12:59:40;103555.13;;;1.33;66.71
18765;BME280;9511;54.242;12.448;2023-02-05T13:02:17;103561.47;;;1.19;66.58
18765;BME280;9511;54.242;12.448;2023-02-05T13:04:50;103544.53;;;1.56;65.75
18765;BME280;9511;54.242;12.448;2023-02-05T13:07:27;103532.44;;;1.65;65.10
18765;BME280;9511;54.242;12.448;2023-02-05T13:09:59;103530.13;;;1.93;64.68
18765;BME280;9511;54.242;12.448;2023-02-05T13:12:31;103526.94;;;2.04;63.91
18765;BME280;9511;54.242;12.448;2023-02-05T13:15:07;103519.75;;;2.10;63.90
18765;BME280;9511;54.242;12.448;2023-02-05T13:17:51;103514.72;;;1.78;63.99
18765;BME280;9511;54.242;12.448;2023-02-05T13:20:22;103504.81;;;2.00;64.54
18765;BME280;9511;54.242;12.448;2023-02-05T13:23:13;103511.47;;;2.14;65.00
18765;BME280;9511;54.242;12.448;2023-02-05T13:25:58;103509.53;;;2.63;64.60
18765;BME280;9511;54.242;12.448;2023-02-05T13:28:47;103524.13;;;3.39;62.90
18765;BME280;9511;54.242;12.448;2023-02-05T13:31:21;103520.91;;;3.78;61.79
18765;BME280;9511;54.242;12.448;2023-02-05T13:33:50;103508.56;;;3.86;60.61
18765;BME280;9511;54.242;12.448;2023-02-05T13:36:33;103497.06;;;3.13;60.42
18765;BME280;9511;54.242;12.448;2023-02-05T13:39:19;103495.25;;;3.65;60.23
18765;BME280;9511;54.242;12.448;2023-02-05T13:42:04;103523.53;;;3.16;59.83
18765;BME280;9511;54.242;12.448;2023-02-05T13:44:51;103534.59;;;2.53;61.00
18765;BME280;9511;54.242;12.448;2023-02-05T13:47:42;103545.91;;;2.27;61.88
18765;BME280;9511;54.242;12.448;2023-02-05T13:50:39;103540.66;;;3.66;62.21
18765;BME280;9511;54.242;12.448;2023-02-05T13:53:19;103523.28;;;4.76;59.84
18765;BME280;9511;54.242;12.448;2023-02-05T13:56:02;103528.88;;;5.38;57.92
18765;BME280;9511;54.242;12.448;2023-02-05T13:58:33;103527.91;;;4.51;56.82
18765;BME280;9511;54.242;12.448;2023-02-05T14:01:05;103528.22;;;4.73;56.58
18765;BME280;9511;54.242;12.448;2023-02-05T14:03:42;103531.06;;;4.85;56.37
18765;BME280;9511;54.242;12.448;2023-02-05T14:06:21;103528.34;;;5.71;55.56
18765;BME280;9511;54.242;12.448;2023-02-05T14:08:54;103529.03;;;6.18;54.39
18765;BME280;9511;54.242;12.448;2023-02-05T14:11:24;103527.16;;;7.08;54.03
18765;BME280;9511;54.242;12.448;2023-02-05T14:14:19;103535.56;;;7.04;51.93
18765;BME280;9511;54.242;12.448;2023-02-05T14:16:47;103534.41;;;7.75;51.30
18765;BME280;9511;54.242;12.448;2023-02-05T14:19:17;103525.69;;;7.44;50.00
18765;BME280;9511;54.242;12.448;2023-02-05T14:22:10;103523.94;;;7.55;50.17
18765;BME280;9511;54.242;12.448;2023-02-05T14:24:43;103524.44;;;7.93;48.72
18765;BME280;9511;54.242;12.448;2023-02-05T14:30:45;103535.16;;;8.62;46.24
18765;BME280;9511;54.242;12.448;2023-02-05T14:33:34;103527.31;;;9.09;45.49
18765;BME280;9511;54.242;12.448;2023-02-05T14:39:20;103534.88;;;9.16;45.76
18765;BME280;9511;54.242;12.448;2023-02-05T14:41:53;103545.88;;;8.87;44.65
18765;BME280;9511;54.242;12.448;2023-02-05T14:44:28;103562.41;;;7.10;46.63
18765;BME280;9511;54.242;12.448;2023-02-05T14:47:01;103574.75;;;6.30;48.90
18765;BME280;9511;54.242;12.448;2023-02-05T14:49:38;103575.72;;;5.14;51.13
18765;BME280;9511;54.242;12.448;2023-02-05T14:52:18;103593.94;;;3.66;53.63
18765;BME280;9511;54.242;12.448;2023-02-05T14:54:49;103590.53;;;2.55;56.52
18765;BME280;9511;54.242;12.448;2023-02-05T14:57:25;103579.72;;;2.34;58.65
18765;BME280;9511;54.242;12.448;2023-02-05T14:59:58;103575.56;;;1.95;59.94
18765;BME280;9511;54.242;12.448;2023-02-05T15:05:36;103571.72;;;1.18;63.77
18765;BME280;9511;54.242;12.448;2023-02-05T15:08:13;103562.56;;;1.21;64.64
18765;BME280;9511;54.242;12.448;2023-02-05T15:10:46;103539.91;;;0.89;65.10
18765;BME280;9511;54.242;12.448;2023-02-05T15:13:15;103543.28;;;0.56;65.71
18765;BME280;9511;54.242;12.448;2023-02-05T15:16:15;103553.19;;;0.36;66.75
18765;BME280;9511;54.242;12.448;2023-02-05T15:18:44;103555.38;;;0.40;67.08
18765;BME280;9511;54.242;12.448;2023-02-05T15:21:16;103555.28;;;0.31;67.48
18765;BME280;9511;54.242;12.448;2023-02-05T15:23:51;103555.38;;;0.24;68.44
18765;BME280;9511;54.242;12.448;2023-02-05T15:26:22;103558.25;;;0.11;68.52
18765;BME280;9511;54.242;12.448;2023-02-05T15:28:56;103568.88;;;-0.10;68.77
18765;BME280;9511;54.242;12.448;2023-02-05T15:31:30;103581.38;;;-0.15;69.21
18765;BME280;9511;54.242;12.448;2023-02-05T15:34:04;103586.78;;;-0.20;69.80
18765;BME280;9511;54.242;12.448;2023-02-05T15:36:40;103581.47;;;-0.29;70.50
18765;BME280;9511;54.242;12.448;2023-02-05T15:39:18;103583.13;;;-0.30;71.16
18765;BME280;9511;54.242;12.448;2023-02-05T15:41:52;103585.47;;;-0.40;71.15
18765;BME280;9511;54.242;12.448;2023-02-05T15:44:26;103596.09;;;-0.45;71.63
18765;BME280;9511;54.242;12.448;2023-02-05T15:46:55;103600.28;;;-0.62;72.61
18765;BME280;9511;54.242;12.448;2023-02-05T15:49:28;103604.56;;;-0.69;72.84
18765;BME280;9511;54.242;12.448;2023-02-05T15:51:58;103614.66;;;-0.79;73.20
18765;BME280;9511;54.242;12.448;2023-02-05T15:54:26;103616.56;;;-0.86;74.20
18765;BME280;9511;54.242;12.448;2023-02-05T15:56:55;103610.81;;;-0.90;73.76
18765;BME280;9511;54.242;12.448;2023-02-05T15:59:25;103609.91;;;-0.98;74.35
18765;BME280;9511;54.242;12.448;2023-02-05T16:02:00;103617.34;;;-1.01;75.29
18765;BME280;9511;54.242;12.448;2023-02-05T16:04:30;103617.34;;;-1.01;75.67
18765;BME280;9511;54.242;12.448;2023-02-05T16:07:00;103618.66;;;-1.04;75.32
18765;BME280;9511;54.242;12.448;2023-02-05T16:09:29;103629.44;;;-1.09;75.61
18765;BME280;9511;54.242;12.448;2023-02-05T16:12:09;103629.66;;;-1.14;75.73
18765;BME280;9511;54.242;12.448;2023-02-05T16:14:37;103636.31;;;-1.16;76.04
18765;BME280;9511;54.242;12.448;2023-02-05T16:17:07;103628.56;;;-1.23;76.53
18765;BME280;9511;54.242;12.448;2023-02-05T16:19:41;103620.75;;;-1.23;76.56
18765;BME280;9511;54.242;12.448;2023-02-05T16:22:21;103601.13;;;-1.36;77.25
18765;BME280;9511;54.242;12.448;2023-02-05T16:24:51;103596.69;;;-1.44;76.70
18765;BME280;9511;54.242;12.448;2023-02-05T16:27:25;103598.91;;;-1.40;77.53
18765;BME280;9511;54.242;12.448;2023-02-05T16:29:59;103601.53;;;-1.47;77.45
18765;BME280;9511;54.242;12.448;2023-02-05T16:32:35;103611.53;;;-1.50;78.11
18765;BME280;9511;54.242;12.448;2023-02-05T16:35:06;103615.09;;;-1.56;77.74
18765;BME280;9511;54.242;12.448;2023-02-05T16:37:35;103626.03;;;-1.59;77.82
18765;BME280;9511;54.242;12.448;2023-02-05T16:40:04;103634.19;;;-1.63;77.85
18765;BME280;9511;54.242;12.448;2023-02-05T16:42:36;103628.81;;;-1.65;78.23
18765;BME280;9511;54.242;12.448;2023-02-05T16:45:19;103616.94;;;-1.63;78.25
18765;BME280;9511;54.242;12.448;2023-02-05T16:48:17;103627.16;;;-1.64;78.86
18765;BME280;9511;54.242;12.448;2023-02-05T16:50:48;103640.13;;;-1.64;78.09
18765;BME280;9511;54.242;12.448;2023-02-05T16:53:20;103647.91;;;-1.64;78.36
18765;BME280;9511;54.242;12.448;2023-02-05T16:55:49;103639.75;;;-1.60;78.92
18765;BME280;9511;54.242;12.448;2023-02-05T16:58:21;103660.53;;;-1.60;79.24
18765;BME280;9511;54.242;12.448;2023-02-05T17:00:51;103678.88;;;-1.58;78.75
18765;BME280;9511;54.242;12.448;2023-02-05T17:03:19;103673.09;;;-1.56;79.07
18765;BME280;9511;54.242;12.448;2023-02-05T17:05:59;103694.81;;;-1.48;79.47
18765;BME280;9511;54.242;12.448;2023-02-05T17:08:30;103700.19;;;-1.47;79.07
18765;BME280;9511;54.242;12.448;2023-02-05T17:11:00;103696.84;;;-1.46;79.35
18765;BME280;9511;54.242;12.448;2023-02-05T17:13:34;103687.94;;;-1.41;79.10
18765;BME280;9511;54.242;12.448;2023-02-05T17:16:17;103671.59;;;-1.40;79.66
18765;BME280;9511;54.242;12.448;2023-02-05T17:18:52;103651.59;;;-1.41;79.55
18765;BME280;9511;54.242;12.448;2023-02-05T17:21:23;103651.41;;;-1.42;79.91
18765;BME280;9511;54.242;12.448;2023-02-05T17:23:52;103649.91;;;-1.40;80.16
18765;BME280;9511;54.242;12.448;2023-02-05T17:26:22;103652.69;;;-1.39;80.24
18765;BME280;9511;54.242;12.448;2023-02-05T17:28:52;103659.00;;;-1.37;80.13
18765;BME280;9511;54.242;12.448;2023-02-05T17:31:21;103658.25;;;-1.36;80.73
18765;BME280;9511;54.242;12.448;2023-02-05T17:33:53;103664.72;;;-1.32;80.08
18765;BME280;9511;54.242;12.448;2023-02-05T17:36:21;103676.78;;;-1.33;80.44
18765;BME280;9511;54.242;12.448;2023-02-05T17:38:48;103678.25;;;-1.27;80.59